createdAt,value
2022-09-13T00:00:02.794Z,17.81
2022-09-13T00:05:04.463Z,17.82
2022-09-13T00:10:06.151Z,17.84
2022-09-13T00:15:08.897Z,17.91
2022-09-13T00:20:10.674Z,17.91
2022-09-13T00:25:12.369Z,17.92
2022-09-13T00:30:14.064Z,17.92
2022-09-13T00:35:15.554Z,17.89
2022-09-13T00:40:17.206Z,17.89
2022-09-13T00:45:19.197Z,17.93
2022-09-13T00:50:39.020Z,17.96
2022-09-13T00:56:09.793Z,18.01
2022-09-13T01:01:14.645Z,17.98
2022-09-13T01:06:20.570Z,17.95
2022-09-13T01:11:40.641Z,17.92
2022-09-13T01:16:44.802Z,17.93
2022-09-13T01:22:18.231Z,17.95
2022-09-13T01:27:34.756Z,18.01
2022-09-13T01:32:58.068Z,18.08
2022-09-13T01:38:11.668Z,18.07
2022-09-13T01:43:42.922Z,18.08
2022-09-13T01:49:00.830Z,18.02
2022-09-13T01:54:09.470Z,18.07
2022-09-13T01:59:24.166Z,18.09
2022-09-13T02:04:30.102Z,18.13
2022-09-13T02:09:37.238Z,18.14
2022-09-13T02:14:39.981Z,18.09
2022-09-13T02:19:55.036Z,18.04
2022-09-13T02:25:02.536Z,18.09
2022-09-13T02:30:10.290Z,18.11
2022-09-13T02:35:18.826Z,18.10
2022-09-13T02:40:26.768Z,18.06
2022-09-13T02:45:35.734Z,18.06
2022-09-13T02:51:01.458Z,18.07
2022-09-13T02:56:34.398Z,18.07
2022-09-13T03:01:37.392Z,18.08
2022-09-13T03:06:41.245Z,18.07
2022-09-13T03:12:01.332Z,18.03
2022-09-13T03:17:34.614Z,17.98
2022-09-13T03:22:52.598Z,17.95
2022-09-13T03:28:08.785Z,17.83
2022-09-13T03:33:35.518Z,17.84
2022-09-13T03:38:51.808Z,17.78
2022-09-13T03:43:59.104Z,17.77
2022-09-13T03:49:08.887Z,17.77
2022-09-13T03:54:16.597Z,17.79
2022-09-13T03:59:18.253Z,17.82
2022-09-13T04:04:19.772Z,17.83
2022-09-13T04:09:21.217Z,17.88
2022-09-13T04:14:23.024Z,17.94
2022-09-13T04:19:25.649Z,18.00
2022-09-13T04:24:29.091Z,17.99
2022-09-13T04:29:31.792Z,18.02
2022-09-13T04:34:33.423Z,18.05
2022-09-13T04:39:34.952Z,18.03
2022-09-13T04:44:36.512Z,17.98
2022-09-13T04:49:38.074Z,17.94
2022-09-13T04:54:39.549Z,17.83
2022-09-13T04:59:40.997Z,17.75
2022-09-13T05:04:42.466Z,17.68
2022-09-13T05:09:43.938Z,17.64
2022-09-13T05:14:45.442Z,17.60
2022-09-13T05:19:47.754Z,17.59
2022-09-13T05:24:49.418Z,17.54
2022-09-13T05:29:50.898Z,17.55
2022-09-13T05:34:52.460Z,17.54
2022-09-13T05:40:10.554Z,17.55
2022-09-13T05:45:12.926Z,17.52
2022-09-13T05:50:32.883Z,17.54
2022-09-13T05:55:35.877Z,17.56
2022-09-13T06:00:37.929Z,17.56
2022-09-13T06:05:39.423Z,17.57
2022-09-13T06:10:40.950Z,17.56
2022-09-13T06:15:43.395Z,17.60
2022-09-13T06:20:45.381Z,17.64
2022-09-13T06:25:46.909Z,17.65
2022-09-13T06:30:48.317Z,17.70
2022-09-13T06:35:49.778Z,17.71
2022-09-13T06:41:00.462Z,17.76
2022-09-13T06:46:10.657Z,17.82
2022-09-13T06:51:14.860Z,17.89
2022-09-13T06:56:19.758Z,17.96
2022-09-13T07:01:30.674Z,18.03
2022-09-13T07:06:35.471Z,18.01
2022-09-13T07:11:40.573Z,18.17
2022-09-13T07:16:42.128Z,18.34
2022-09-13T07:21:44.001Z,18.44
2022-09-13T07:26:46.709Z,18.57
2022-09-13T07:31:53.098Z,18.65
2022-09-13T07:36:54.877Z,18.74
2022-09-13T07:41:56.351Z,18.98
2022-09-13T07:46:57.869Z,19.23
2022-09-13T07:51:59.341Z,19.23
2022-09-13T07:57:00.790Z,19.07
2022-09-13T08:02:02.364Z,19.06
2022-09-13T08:07:03.953Z,19.24
2022-09-13T08:12:05.494Z,19.54
2022-09-13T08:17:06.946Z,19.43
2022-09-13T08:22:08.413Z,19.54
2022-09-13T08:27:09.879Z,19.71
2022-09-13T08:32:11.342Z,19.68
2022-09-13T08:37:12.891Z,19.57
2022-09-13T08:42:24.350Z,19.64
2022-09-13T08:47:43.698Z,19.90
2022-09-13T08:52:52.121Z,19.90
2022-09-13T08:58:32.234Z,19.84
2022-09-13T09:03:46.728Z,20.02
2022-09-13T09:09:06.110Z,20.24
2022-09-13T09:14:33.457Z,20.45
2022-09-13T09:19:40.767Z,20.49
2022-09-13T09:24:50.856Z,20.48
2022-09-13T09:29:58.057Z,20.53
2022-09-13T09:35:21.126Z,20.46
2022-09-13T09:40:22.664Z,20.23
2022-09-13T09:45:27.920Z,20.48
2022-09-13T09:50:34.190Z,20.58
2022-09-13T09:55:41.505Z,20.61
2022-09-13T10:00:57.309Z,20.59
2022-09-13T10:06:18.561Z,20.62
2022-09-13T10:11:22.233Z,20.79
2022-09-13T10:16:27.969Z,20.78
2022-09-13T10:21:29.997Z,20.68
2022-09-13T10:26:33.748Z,20.71
2022-09-13T10:31:41.672Z,20.73
2022-09-13T10:36:59.690Z,20.91
2022-09-13T10:42:05.187Z,21.02
2022-09-13T10:47:13.367Z,20.92
2022-09-13T10:52:43.168Z,20.95
2022-09-13T10:57:46.483Z,20.91
2022-09-13T11:03:30.918Z,20.92
2022-09-13T11:08:47.382Z,20.96
2022-09-13T11:13:48.770Z,21.10
2022-09-13T11:19:07.173Z,21.21
2022-09-13T11:24:08.633Z,21.36
2022-09-13T11:29:25.330Z,21.35
2022-09-13T11:34:40.224Z,21.35
2022-09-13T11:39:50.202Z,21.20
2022-09-13T11:45:00.711Z,21.18
2022-09-13T11:50:40.201Z,21.08
2022-09-13T11:55:47.713Z,21.12
2022-09-13T12:00:58.420Z,21.10
2022-09-13T12:06:05.237Z,21.04
2022-09-13T12:11:15.852Z,21.01
2022-09-13T12:16:26.837Z,20.95
2022-09-13T12:21:37.815Z,20.86
2022-09-13T12:26:56.705Z,20.88
2022-09-13T12:32:05.399Z,20.89
2022-09-13T12:37:27.040Z,20.91
2022-09-13T12:42:57.401Z,20.77
2022-09-13T12:48:40.394Z,20.67
2022-09-13T12:54:10.988Z,20.69
2022-09-13T12:59:48.592Z,20.69
2022-09-13T13:04:54.151Z,20.73
2022-09-13T13:09:56.966Z,20.58
2022-09-13T13:15:01.375Z,20.54
2022-09-13T13:20:41.045Z,20.61
2022-09-13T13:25:56.263Z,20.52
2022-09-13T13:30:59.048Z,20.46
2022-09-13T13:36:24.277Z,20.41
2022-09-13T13:41:40.785Z,20.42
2022-09-13T13:46:42.722Z,20.38
2022-09-13T13:51:44.207Z,20.29
2022-09-13T13:56:49.131Z,20.24
2022-09-13T14:01:55.561Z,20.24
2022-09-13T14:07:20.238Z,20.30
2022-09-13T14:12:43.052Z,20.33
2022-09-13T14:18:08.968Z,20.35
2022-09-13T14:23:20.444Z,20.25
2022-09-13T14:28:23.391Z,20.14
2022-09-13T14:33:34.572Z,20.05
2022-09-13T14:38:37.004Z,19.93
2022-09-13T14:43:38.807Z,19.94
2022-09-13T14:48:54.837Z,19.86
2022-09-13T14:54:07.054Z,19.82
2022-09-13T14:59:24.501Z,19.74
2022-09-13T15:04:28.082Z,19.72
2022-09-13T15:09:29.680Z,19.68
2022-09-13T15:14:35.065Z,19.64
2022-09-13T15:19:41.877Z,19.53
2022-09-13T15:24:49.945Z,19.53
2022-09-13T15:30:01.282Z,19.52
2022-09-13T15:35:02.939Z,19.49
2022-09-13T15:40:17.761Z,19.48
2022-09-13T15:45:20.999Z,19.35
2022-09-13T15:50:31.002Z,19.34
2022-09-13T15:55:32.591Z,19.30
2022-09-13T16:00:34.113Z,19.29
2022-09-13T16:05:36.615Z,19.29
2022-09-13T16:10:38.138Z,19.23
2022-09-13T16:15:39.707Z,19.18
2022-09-13T16:20:41.162Z,19.14
2022-09-13T16:25:43.316Z,19.07
2022-09-13T16:30:44.762Z,19.03
2022-09-13T16:35:46.867Z,18.94
2022-09-13T16:40:49.122Z,18.85
2022-09-13T16:45:51.445Z,18.74
2022-09-13T16:50:52.873Z,18.62
2022-09-13T16:56:11.367Z,18.57
2022-09-13T17:01:15.068Z,18.52
2022-09-13T17:06:18.225Z,18.40
2022-09-13T17:11:21.835Z,18.30
2022-09-13T17:16:25.801Z,18.26
2022-09-13T17:21:28.342Z,18.16
2022-09-13T17:26:29.923Z,18.09
2022-09-13T17:31:31.508Z,18.01
2022-09-13T17:36:33.054Z,17.85
2022-09-13T17:41:35.049Z,17.78
2022-09-13T17:46:36.600Z,17.66
2022-09-13T17:51:38.120Z,17.59
2022-09-13T17:56:42.588Z,17.50
2022-09-13T18:01:49.638Z,17.45
2022-09-13T18:06:52.436Z,17.39
2022-09-13T18:11:53.927Z,17.33
2022-09-13T18:16:57.278Z,17.29
2022-09-13T18:22:01.393Z,17.26
2022-09-13T18:27:03.675Z,17.24
2022-09-13T18:32:05.251Z,17.24
2022-09-13T18:37:06.732Z,17.24
2022-09-13T18:42:08.396Z,17.21
2022-09-13T18:47:13.750Z,17.18
2022-09-13T18:52:16.427Z,17.14
2022-09-13T18:57:18.656Z,17.09
2022-09-13T19:02:21.044Z,16.96
2022-09-13T19:07:23.666Z,16.96
2022-09-13T19:12:25.705Z,16.89
2022-09-13T19:17:27.275Z,16.83
2022-09-13T19:22:28.922Z,16.74
2022-09-13T19:27:30.495Z,16.64
2022-09-13T19:32:33.728Z,16.59
2022-09-13T19:37:35.317Z,16.49
2022-09-13T19:42:36.799Z,16.36
2022-09-13T19:48:34.641Z,16.29
2022-09-13T19:52:59.893Z,16.19
2022-09-13T19:58:01.394Z,16.17
2022-09-13T20:03:03.560Z,16.13
2022-09-13T20:08:05.206Z,16.05
2022-09-13T20:13:06.669Z,16.04
2022-09-13T20:18:13.171Z,16.02
2022-09-13T20:23:17.220Z,15.95
2022-09-13T20:28:21.298Z,15.91
2022-09-13T20:33:23.166Z,15.85
2022-09-13T20:38:25.586Z,15.79
2022-09-13T20:43:27.308Z,15.72
2022-09-13T20:48:28.942Z,15.66
2022-09-13T20:53:30.620Z,15.57
2022-09-13T20:58:32.249Z,15.52
2022-09-13T21:03:38.852Z,15.46
2022-09-13T21:08:43.729Z,15.40
2022-09-13T21:13:47.548Z,15.36
2022-09-13T21:18:50.051Z,15.30
2022-09-13T21:23:52.139Z,15.26
2022-09-13T21:28:55.496Z,15.22
2022-09-13T21:34:08.472Z,15.17
2022-09-13T21:39:10.629Z,15.12
2022-09-13T21:44:12.143Z,15.12
2022-09-13T21:49:13.698Z,15.00
2022-09-13T21:54:17.555Z,15.03
2022-09-13T21:59:20.743Z,14.99
2022-09-13T22:04:25.272Z,14.99
2022-09-13T22:09:27.534Z,14.95
2022-09-13T22:14:29.136Z,14.87
2022-09-13T22:19:31.646Z,14.82
2022-09-13T22:24:35.669Z,14.76
2022-09-13T22:29:37.241Z,14.78
2022-09-13T22:34:38.770Z,14.73
2022-09-13T22:39:40.281Z,14.68
2022-09-13T22:44:41.985Z,14.64
2022-09-13T22:49:43.449Z,14.69
2022-09-13T22:54:45.937Z,14.64
2022-09-13T22:59:47.595Z,14.56
2022-09-13T23:04:49.090Z,14.49
2022-09-13T23:09:50.530Z,14.43
2022-09-13T23:14:51.958Z,14.37
2022-09-13T23:19:53.421Z,14.27
2022-09-13T23:24:54.895Z,14.23
2022-09-13T23:29:56.734Z,14.17
2022-09-13T23:34:58.190Z,14.07
2022-09-13T23:40:01.429Z,14.06
2022-09-13T23:45:03.167Z,14.10
2022-09-13T23:50:05.003Z,14.11
2022-09-13T23:55:07.181Z,14.23
